sensor_id;sensor_type;location;lat;lon;timestamp;P1;durP1;ratioP1;P2;durP2;ratioP2
7703;SDS011;3894;49.700;10.770;2022-08-21T00:00:10;11.63;;;7.68;;
7703;SDS011;3894;49.700;10.770;2022-08-21T00:02:44;10.63;;;6.68;;
7703;SDS011;3894;49.700;10.770;2022-08-21T00:05:12;9.75;;;6.25;;
7703;SDS011;3894;49.700;10.770;2022-08-21T00:07:37;11.60;;;7.07;;
7703;SDS011;3894;49.700;10.770;2022-08-21T00:10:03;9.90;;;6.68;;
7703;SDS011;3894;49.700;10.770;2022-08-21T00:12:30;10.52;;;6.65;;
7703;SDS011;3894;49.700;10.770;2022-08-21T00:14:56;8.90;;;5.72;;
7703;SDS011;3894;49.700;10.770;2022-08-21T00:17:21;10.20;;;6.53;;
7703;SDS011;3894;49.700;10.770;2022-08-21T00:19:47;9.93;;;5.90;;
7703;SDS011;3894;49.700;10.770;2022-08-21T00:22:13;10.98;;;6.00;;
7703;SDS011;3894;49.700;10.770;2022-08-21T00:24:39;11.13;;;6.38;;
7703;SDS011;3894;49.700;10.770;2022-08-21T00:27:04;11.52;;;6.35;;
7703;SDS011;3894;49.700;10.770;2022-08-21T00:29:30;11.25;;;6.35;;
7703;SDS011;3894;49.700;10.770;2022-08-21T00:31:55;9.98;;;6.05;;
7703;SDS011;3894;49.700;10.770;2022-08-21T00:34:21;9.20;;;6.00;;
7703;SDS011;3894;49.700;10.770;2022-08-21T00:36:46;11.15;;;6.97;;
7703;SDS011;3894;49.700;10.770;2022-08-21T00:39:12;11.45;;;6.25;;
7703;SDS011;3894;49.700;10.770;2022-08-21T00:41:38;9.38;;;6.50;;
7703;SDS011;3894;49.700;10.770;2022-08-21T00:44:08;13.02;;;6.40;;
7703;SDS011;3894;49.700;10.770;2022-08-21T00:46:36;10.60;;;6.55;;
7703;SDS011;3894;49.700;10.770;2022-08-21T00:49:03;13.57;;;6.78;;
7703;SDS011;3894;49.700;10.770;2022-08-21T00:51:36;11.75;;;6.63;;
7703;SDS011;3894;49.700;10.770;2022-08-21T00:54:05;12.43;;;7.05;;
7703;SDS011;3894;49.700;10.770;2022-08-21T00:56:32;11.30;;;6.40;;
7703;SDS011;3894;49.700;10.770;2022-08-21T00:58:57;11.82;;;6.13;;
7703;SDS011;3894;49.700;10.770;2022-08-21T01:01:25;8.73;;;5.80;;
7703;SDS011;3894;49.700;10.770;2022-08-21T01:03:50;11.43;;;6.53;;
7703;SDS011;3894;49.700;10.770;2022-08-21T01:06:16;10.30;;;6.47;;
7703;SDS011;3894;49.700;10.770;2022-08-21T01:08:42;9.27;;;6.20;;
7703;SDS011;3894;49.700;10.770;2022-08-21T01:11:08;9.50;;;6.15;;
7703;SDS011;3894;49.700;10.770;2022-08-21T01:13:34;9.93;;;5.90;;
7703;SDS011;3894;49.700;10.770;2022-08-21T01:16:02;9.50;;;6.30;;
7703;SDS011;3894;49.700;10.770;2022-08-21T01:18:30;10.65;;;6.40;;
7703;SDS011;3894;49.700;10.770;2022-08-21T01:21:03;9.10;;;6.18;;
7703;SDS011;3894;49.700;10.770;2022-08-21T01:23:30;12.20;;;7.10;;
7703;SDS011;3894;49.700;10.770;2022-08-21T01:25:55;11.68;;;6.30;;
7703;SDS011;3894;49.700;10.770;2022-08-21T01:28:21;13.48;;;7.30;;
7703;SDS011;3894;49.700;10.770;2022-08-21T01:30:48;11.38;;;6.80;;
7703;SDS011;3894;49.700;10.770;2022-08-21T01:33:17;13.05;;;7.63;;
7703;SDS011;3894;49.700;10.770;2022-08-21T01:35:44;14.15;;;7.57;;
7703;SDS011;3894;49.700;10.770;2022-08-21T01:38:10;14.18;;;7.70;;
7703;SDS011;3894;49.700;10.770;2022-08-21T01:40:36;12.85;;;7.57;;
7703;SDS011;3894;49.700;10.770;2022-08-21T01:43:02;13.18;;;7.38;;
7703;SDS011;3894;49.700;10.770;2022-08-21T01:45:28;10.70;;;7.10;;
7703;SDS011;3894;49.700;10.770;2022-08-21T01:47:54;11.38;;;7.05;;
7703;SDS011;3894;49.700;10.770;2022-08-21T01:50:19;14.55;;;5.18;;
7703;SDS011;3894;49.700;10.770;2022-08-21T01:52:46;11.75;;;6.45;;
7703;SDS011;3894;49.700;10.770;2022-08-21T01:55:12;26.77;;;7.95;;
7703;SDS011;3894;49.700;10.770;2022-08-21T01:57:39;17.60;;;7.45;;
7703;SDS011;3894;49.700;10.770;2022-08-21T02:00:05;15.35;;;6.68;;
7703;SDS011;3894;49.700;10.770;2022-08-21T02:02:33;21.17;;;6.72;;
7703;SDS011;3894;49.700;10.770;2022-08-21T02:04:59;19.95;;;6.28;;
7703;SDS011;3894;49.700;10.770;2022-08-21T02:07:25;8.43;;;5.55;;
7703;SDS011;3894;49.700;10.770;2022-08-21T02:09:50;11.52;;;6.47;;
7703;SDS011;3894;49.700;10.770;2022-08-21T02:12:16;61.90;;;8.02;;
7703;SDS011;3894;49.700;10.770;2022-08-21T02:14:41;11.45;;;5.72;;
7703;SDS011;3894;49.700;10.770;2022-08-21T02:17:07;9.43;;;6.15;;
7703;SDS011;3894;49.700;10.770;2022-08-21T02:19:32;21.58;;;7.55;;
7703;SDS011;3894;49.700;10.770;2022-08-21T02:21:58;20.17;;;7.32;;
7703;SDS011;3894;49.700;10.770;2022-08-21T02:24:24;32.20;;;8.55;;
7703;SDS011;3894;49.700;10.770;2022-08-21T02:26:49;19.35;;;7.68;;
7703;SDS011;3894;49.700;10.770;2022-08-21T02:29:15;29.95;;;7.65;;
7703;SDS011;3894;49.700;10.770;2022-08-21T02:31:40;39.58;;;7.72;;
7703;SDS011;3894;49.700;10.770;2022-08-21T02:34:06;50.60;;;8.10;;
7703;SDS011;3894;49.700;10.770;2022-08-21T02:36:31;50.45;;;8.43;;
7703;SDS011;3894;49.700;10.770;2022-08-21T02:38:57;101.60;;;9.70;;
7703;SDS011;3894;49.700;10.770;2022-08-21T02:41:23;107.25;;;10.40;;
7703;SDS011;3894;49.700;10.770;2022-08-21T02:43:49;123.18;;;11.63;;
7703;SDS011;3894;49.700;10.770;2022-08-21T02:46:16;39.33;;;8.88;;
7703;SDS011;3894;49.700;10.770;2022-08-21T02:48:43;54.92;;;9.15;;
7703;SDS011;3894;49.700;10.770;2022-08-21T02:51:14;97.00;;;11.43;;
7703;SDS011;3894;49.700;10.770;2022-08-21T02:53:42;63.25;;;9.98;;
7703;SDS011;3894;49.700;10.770;2022-08-21T02:56:10;37.40;;;9.30;;
7703;SDS011;3894;49.700;10.770;2022-08-21T02:58:44;21.10;;;7.28;;
7703;SDS011;3894;49.700;10.770;2022-08-21T03:01:12;11.02;;;7.20;;
7703;SDS011;3894;49.700;10.770;2022-08-21T03:03:39;18.17;;;7.97;;
7703;SDS011;3894;49.700;10.770;2022-08-21T03:06:06;27.17;;;8.10;;
7703;SDS011;3894;49.700;10.770;2022-08-21T03:08:33;12.38;;;7.15;;
7703;SDS011;3894;49.700;10.770;2022-08-21T03:10:59;23.35;;;7.00;;
7703;SDS011;3894;49.700;10.770;2022-08-21T03:13:26;9.02;;;5.97;;
7703;SDS011;3894;49.700;10.770;2022-08-21T03:15:52;7.97;;;5.38;;
7703;SDS011;3894;49.700;10.770;2022-08-21T03:18:19;9.43;;;5.50;;
7703;SDS011;3894;49.700;10.770;2022-08-21T03:20:45;21.27;;;6.28;;
7703;SDS011;3894;49.700;10.770;2022-08-21T03:23:11;61.70;;;8.10;;
7703;SDS011;3894;49.700;10.770;2022-08-21T03:25:38;28.23;;;7.40;;
7703;SDS011;3894;49.700;10.770;2022-08-21T03:28:05;27.02;;;7.10;;
7703;SDS011;3894;49.700;10.770;2022-08-21T03:30:32;48.95;;;8.23;;
7703;SDS011;3894;49.700;10.770;2022-08-21T03:32:58;25.98;;;7.70;;
7703;SDS011;3894;49.700;10.770;2022-08-21T03:35:24;36.70;;;7.25;;
7703;SDS011;3894;49.700;10.770;2022-08-21T03:37:49;36.22;;;6.65;;
7703;SDS011;3894;49.700;10.770;2022-08-21T03:40:16;22.58;;;5.72;;
7703;SDS011;3894;49.700;10.770;2022-08-21T03:42:43;57.75;;;8.10;;
7703;SDS011;3894;49.700;10.770;2022-08-21T03:45:12;65.30;;;7.35;;
7703;SDS011;3894;49.700;10.770;2022-08-21T03:47:38;68.68;;;8.05;;
7703;SDS011;3894;49.700;10.770;2022-08-21T03:50:03;37.80;;;7.82;;
7703;SDS011;3894;49.700;10.770;2022-08-21T03:52:30;22.35;;;6.00;;
7703;SDS011;3894;49.700;10.770;2022-08-21T03:54:55;65.13;;;7.85;;
7703;SDS011;3894;49.700;10.770;2022-08-21T03:57:21;29.92;;;6.72;;
7703;SDS011;3894;49.700;10.770;2022-08-21T03:59:46;27.15;;;7.07;;
7703;SDS011;3894;49.700;10.770;2022-08-21T04:02:12;38.08;;;6.35;;
7703;SDS011;3894;49.700;10.770;2022-08-21T04:04:42;31.17;;;6.32;;
7703;SDS011;3894;49.700;10.770;2022-08-21T04:07:07;47.08;;;6.93;;
7703;SDS011;3894;49.700;10.770;2022-08-21T04:09:33;23.70;;;6.95;;
7703;SDS011;3894;49.700;10.770;2022-08-21T04:11:59;16.48;;;6.50;;
7703;SDS011;3894;49.700;10.770;2022-08-21T04:14:25;30.15;;;6.07;;
7703;SDS011;3894;49.700;10.770;2022-08-21T04:16:51;25.48;;;6.00;;
7703;SDS011;3894;49.700;10.770;2022-08-21T04:19:16;50.13;;;6.28;;
7703;SDS011;3894;49.700;10.770;2022-08-21T04:21:42;57.67;;;6.68;;
7703;SDS011;3894;49.700;10.770;2022-08-21T04:24:09;92.32;;;7.63;;
7703;SDS011;3894;49.700;10.770;2022-08-21T04:26:35;51.75;;;6.95;;
7703;SDS011;3894;49.700;10.770;2022-08-21T04:29:02;20.55;;;5.45;;
7703;SDS011;3894;49.700;10.770;2022-08-21T04:31:31;35.50;;;6.07;;
7703;SDS011;3894;49.700;10.770;2022-08-21T04:33:58;33.55;;;6.32;;
7703;SDS011;3894;49.700;10.770;2022-08-21T04:36:23;33.58;;;6.03;;
7703;SDS011;3894;49.700;10.770;2022-08-21T04:38:49;48.58;;;7.25;;
7703;SDS011;3894;49.700;10.770;2022-08-21T04:41:15;82.03;;;8.13;;
7703;SDS011;3894;49.700;10.770;2022-08-21T04:43:40;54.50;;;7.45;;
7703;SDS011;3894;49.700;10.770;2022-08-21T04:46:06;120.32;;;9.95;;
7703;SDS011;3894;49.700;10.770;2022-08-21T04:48:31;65.03;;;8.13;;
7703;SDS011;3894;49.700;10.770;2022-08-21T04:51:17;55.22;;;7.72;;
7703;SDS011;3894;49.700;10.770;2022-08-21T04:53:50;52.25;;;8.20;;
7703;SDS011;3894;49.700;10.770;2022-08-21T04:56:20;29.90;;;7.45;;
7703;SDS011;3894;49.700;10.770;2022-08-21T04:58:50;38.55;;;7.72;;
7703;SDS011;3894;49.700;10.770;2022-08-21T05:01:20;83.20;;;9.10;;
7703;SDS011;3894;49.700;10.770;2022-08-21T05:03:49;51.15;;;8.25;;
7703;SDS011;3894;49.700;10.770;2022-08-21T05:06:17;30.05;;;7.18;;
7703;SDS011;3894;49.700;10.770;2022-08-21T05:08:43;46.17;;;7.55;;
7703;SDS011;3894;49.700;10.770;2022-08-21T05:11:11;17.00;;;6.72;;
7703;SDS011;3894;49.700;10.770;2022-08-21T05:13:38;43.55;;;7.82;;
7703;SDS011;3894;49.700;10.770;2022-08-21T05:16:05;35.78;;;7.65;;
7703;SDS011;3894;49.700;10.770;2022-08-21T05:18:31;52.25;;;8.52;;
7703;SDS011;3894;49.700;10.770;2022-08-21T05:20:56;32.40;;;7.72;;
7703;SDS011;3894;49.700;10.770;2022-08-21T05:23:22;37.17;;;7.70;;
7703;SDS011;3894;49.700;10.770;2022-08-21T05:25:47;54.38;;;7.68;;
7703;SDS011;3894;49.700;10.770;2022-08-21T05:28:13;38.95;;;7.88;;
7703;SDS011;3894;49.700;10.770;2022-08-21T05:30:39;22.20;;;7.10;;
7703;SDS011;3894;49.700;10.770;2022-08-21T05:33:06;23.60;;;7.60;;
7703;SDS011;3894;49.700;10.770;2022-08-21T05:35:32;62.03;;;7.82;;
7703;SDS011;3894;49.700;10.770;2022-08-21T05:37:59;43.33;;;7.70;;
7703;SDS011;3894;49.700;10.770;2022-08-21T05:40:25;14.52;;;6.10;;
7703;SDS011;3894;49.700;10.770;2022-08-21T05:42:52;39.45;;;6.97;;
7703;SDS011;3894;49.700;10.770;2022-08-21T05:45:20;21.27;;;5.63;;
7703;SDS011;3894;49.700;10.770;2022-08-21T05:47:49;57.50;;;7.63;;
7703;SDS011;3894;49.700;10.770;2022-08-21T05:50:15;66.57;;;8.15;;
7703;SDS011;3894;49.700;10.770;2022-08-21T05:52:40;29.38;;;6.93;;
7703;SDS011;3894;49.700;10.770;2022-08-21T05:55:06;44.83;;;7.57;;
7703;SDS011;3894;49.700;10.770;2022-08-21T05:57:32;29.38;;;6.70;;
7703;SDS011;3894;49.700;10.770;2022-08-21T05:59:57;63.42;;;7.72;;
7703;SDS011;3894;49.700;10.770;2022-08-21T06:02:23;50.20;;;8.40;;
7703;SDS011;3894;49.700;10.770;2022-08-21T06:04:48;66.53;;;8.10;;
7703;SDS011;3894;49.700;10.770;2022-08-21T06:07:14;55.70;;;7.85;;
7703;SDS011;3894;49.700;10.770;2022-08-21T06:09:40;50.65;;;7.53;;
7703;SDS011;3894;49.700;10.770;2022-08-21T06:12:07;26.90;;;6.97;;
7703;SDS011;3894;49.700;10.770;2022-08-21T06:14:35;15.32;;;5.43;;
7703;SDS011;3894;49.700;10.770;2022-08-21T06:17:02;47.00;;;7.43;;
7703;SDS011;3894;49.700;10.770;2022-08-21T06:19:35;21.42;;;6.75;;
7703;SDS011;3894;49.700;10.770;2022-08-21T06:22:01;12.93;;;6.47;;
7703;SDS011;3894;49.700;10.770;2022-08-21T06:24:27;13.80;;;6.80;;
7703;SDS011;3894;49.700;10.770;2022-08-21T06:26:53;11.63;;;6.53;;
7703;SDS011;3894;49.700;10.770;2022-08-21T06:29:19;9.02;;;5.75;;
7703;SDS011;3894;49.700;10.770;2022-08-21T06:31:45;24.02;;;6.65;;
7703;SDS011;3894;49.700;10.770;2022-08-21T06:34:11;13.98;;;7.40;;
7703;SDS011;3894;49.700;10.770;2022-08-21T06:36:38;11.73;;;6.07;;
7703;SDS011;3894;49.700;10.770;2022-08-21T06:39:04;11.80;;;6.28;;
7703;SDS011;3894;49.700;10.770;2022-08-21T06:41:30;11.75;;;6.90;;
7703;SDS011;3894;49.700;10.770;2022-08-21T06:43:56;11.10;;;6.85;;
7703;SDS011;3894;49.700;10.770;2022-08-21T06:46:22;12.02;;;6.35;;
7703;SDS011;3894;49.700;10.770;2022-08-21T06:48:49;12.45;;;7.00;;
7703;SDS011;3894;49.700;10.770;2022-08-21T06:51:15;9.85;;;6.95;;
7703;SDS011;3894;49.700;10.770;2022-08-21T06:53:41;12.68;;;7.72;;
7703;SDS011;3894;49.700;10.770;2022-08-21T06:56:07;10.93;;;7.05;;
7703;SDS011;3894;49.700;10.770;2022-08-21T06:58:32;8.95;;;6.18;;
7703;SDS011;3894;49.700;10.770;2022-08-21T07:00:58;10.68;;;6.70;;
7703;SDS011;3894;49.700;10.770;2022-08-21T07:03:25;11.20;;;6.57;;
7703;SDS011;3894;49.700;10.770;2022-08-21T07:05:55;11.00;;;6.72;;
7703;SDS011;3894;49.700;10.770;2022-08-21T07:08:23;10.80;;;6.68;;
7703;SDS011;3894;49.700;10.770;2022-08-21T07:10:49;10.85;;;6.95;;
7703;SDS011;3894;49.700;10.770;2022-08-21T07:13:16;12.50;;;7.43;;
7703;SDS011;3894;49.700;10.770;2022-08-21T07:15:41;10.77;;;6.82;;
7703;SDS011;3894;49.700;10.770;2022-08-21T07:18:07;11.30;;;7.53;;
7703;SDS011;3894;49.700;10.770;2022-08-21T07:20:33;10.50;;;7.18;;
7703;SDS011;3894;49.700;10.770;2022-08-21T07:23:03;10.55;;;7.25;;
7703;SDS011;3894;49.700;10.770;2022-08-21T07:25:31;13.35;;;7.47;;
7703;SDS011;3894;49.700;10.770;2022-08-21T07:27:57;11.38;;;7.25;;
7703;SDS011;3894;49.700;10.770;2022-08-21T07:30:23;11.05;;;7.03;;
7703;SDS011;3894;49.700;10.770;2022-08-21T07:32:49;14.18;;;8.88;;
7703;SDS011;3894;49.700;10.770;2022-08-21T07:35:15;14.30;;;8.70;;
7703;SDS011;3894;49.700;10.770;2022-08-21T07:37:41;13.15;;;7.75;;
7703;SDS011;3894;49.700;10.770;2022-08-21T07:40:07;13.93;;;9.18;;
7703;SDS011;3894;49.700;10.770;2022-08-21T07:42:33;12.80;;;8.48;;
7703;SDS011;3894;49.700;10.770;2022-08-21T07:44:58;14.00;;;9.35;;
7703;SDS011;3894;49.700;10.770;2022-08-21T07:47:24;13.20;;;8.63;;
7703;SDS011;3894;49.700;10.770;2022-08-21T07:49:49;13.63;;;8.65;;
7703;SDS011;3894;49.700;10.770;2022-08-21T07:52:15;12.93;;;8.30;;
7703;SDS011;3894;49.700;10.770;2022-08-21T07:54:40;15.23;;;8.85;;
7703;SDS011;3894;49.700;10.770;2022-08-21T07:57:06;13.57;;;9.40;;
7703;SDS011;3894;49.700;10.770;2022-08-21T07:59:31;13.48;;;9.48;;
7703;SDS011;3894;49.700;10.770;2022-08-21T08:01:57;15.02;;;9.30;;
7703;SDS011;3894;49.700;10.770;2022-08-21T08:04:23;13.27;;;9.35;;
7703;SDS011;3894;49.700;10.770;2022-08-21T08:06:49;13.30;;;9.10;;
7703;SDS011;3894;49.700;10.770;2022-08-21T08:09:14;12.70;;;9.05;;
7703;SDS011;3894;49.700;10.770;2022-08-21T08:11:42;14.93;;;10.15;;
7703;SDS011;3894;49.700;10.770;2022-08-21T08:14:10;15.20;;;9.90;;
7703;SDS011;3894;49.700;10.770;2022-08-21T08:16:36;15.90;;;9.23;;
7703;SDS011;3894;49.700;10.770;2022-08-21T08:19:02;14.32;;;10.13;;
7703;SDS011;3894;49.700;10.770;2022-08-21T08:21:28;13.15;;;9.65;;
7703;SDS011;3894;49.700;10.770;2022-08-21T08:23:54;15.13;;;9.80;;
7703;SDS011;3894;49.700;10.770;2022-08-21T08:26:19;12.65;;;9.60;;
7703;SDS011;3894;49.700;10.770;2022-08-21T08:28:45;13.93;;;10.80;;
7703;SDS011;3894;49.700;10.770;2022-08-21T08:31:11;11.55;;;9.05;;
7703;SDS011;3894;49.700;10.770;2022-08-21T08:33:37;12.95;;;9.63;;
7703;SDS011;3894;49.700;10.770;2022-08-21T08:36:03;13.38;;;10.05;;
7703;SDS011;3894;49.700;10.770;2022-08-21T08:38:29;13.75;;;9.75;;
7703;SDS011;3894;49.700;10.770;2022-08-21T08:41:02;13.45;;;9.50;;
7703;SDS011;3894;49.700;10.770;2022-08-21T08:43:29;13.30;;;9.13;;
7703;SDS011;3894;49.700;10.770;2022-08-21T08:45:57;12.35;;;9.20;;
7703;SDS011;3894;49.700;10.770;2022-08-21T08:48:49;11.98;;;8.77;;
7703;SDS011;3894;49.700;10.770;2022-08-21T08:51:19;11.67;;;9.03;;
7703;SDS011;3894;49.700;10.770;2022-08-21T08:56:17;10.65;;;8.48;;
7703;SDS011;3894;49.700;10.770;2022-08-21T08:58:46;10.68;;;8.65;;
7703;SDS011;3894;49.700;10.770;2022-08-21T09:01:15;10.27;;;8.02;;
7703;SDS011;3894;49.700;10.770;2022-08-21T09:03:44;11.80;;;8.50;;
7703;SDS011;3894;49.700;10.770;2022-08-21T09:12:29;11.43;;;8.57;;
7703;SDS011;3894;49.700;10.770;2022-08-21T09:15:02;11.90;;;9.07;;
7703;SDS011;3894;49.700;10.770;2022-08-21T09:20:37;11.85;;;8.65;;
7703;SDS011;3894;49.700;10.770;2022-08-21T09:28:26;12.77;;;9.13;;
7703;SDS011;3894;49.700;10.770;2022-08-21T09:30:54;11.77;;;8.65;;
7703;SDS011;3894;49.700;10.770;2022-08-21T09:33:21;11.60;;;8.52;;
7703;SDS011;3894;49.700;10.770;2022-08-21T09:35:51;11.10;;;8.45;;
7703;SDS011;3894;49.700;10.770;2022-08-21T09:38:26;11.75;;;9.05;;
7703;SDS011;3894;49.700;10.770;2022-08-21T09:41:01;10.73;;;8.27;;
7703;SDS011;3894;49.700;10.770;2022-08-21T09:43:29;11.57;;;8.57;;
7703;SDS011;3894;49.700;10.770;2022-08-21T09:48:39;10.48;;;8.57;;
7703;SDS011;3894;49.700;10.770;2022-08-21T09:51:14;13.65;;;9.05;;
7703;SDS011;3894;49.700;10.770;2022-08-21T09:53:45;12.10;;;9.13;;
7703;SDS011;3894;49.700;10.770;2022-08-21T09:56:18;10.93;;;8.55;;
7703;SDS011;3894;49.700;10.770;2022-08-21T09:59:15;14.02;;;9.40;;
7703;SDS011;3894;49.700;10.770;2022-08-21T10:01:51;11.93;;;9.00;;
7703;SDS011;3894;49.700;10.770;2022-08-21T10:04:22;11.48;;;8.90;;
7703;SDS011;3894;49.700;10.770;2022-08-21T10:07:06;10.52;;;8.98;;
7703;SDS011;3894;49.700;10.770;2022-08-21T10:09:36;12.20;;;8.57;;
7703;SDS011;3894;49.700;10.770;2022-08-21T10:12:21;11.05;;;7.82;;
7703;SDS011;3894;49.700;10.770;2022-08-21T10:20:07;11.45;;;9.52;;
7703;SDS011;3894;49.700;10.770;2022-08-21T10:25:21;10.35;;;8.73;;
7703;SDS011;3894;49.700;10.770;2022-08-21T10:28:05;10.75;;;8.70;;
7703;SDS011;3894;49.700;10.770;2022-08-21T10:39:19;11.05;;;9.02;;
7703;SDS011;3894;49.700;10.770;2022-08-21T10:42:01;10.77;;;8.48;;
7703;SDS011;3894;49.700;10.770;2022-08-21T10:47:26;11.52;;;8.50;;
7703;SDS011;3894;49.700;10.770;2022-08-21T10:52:36;11.27;;;9.45;;
7703;SDS011;3894;49.700;10.770;2022-08-21T10:55:36;12.45;;;8.95;;
7703;SDS011;3894;49.700;10.770;2022-08-21T10:58:19;11.20;;;9.43;;
7703;SDS011;3894;49.700;10.770;2022-08-21T11:00:58;11.02;;;8.90;;
7703;SDS011;3894;49.700;10.770;2022-08-21T11:04:15;12.43;;;9.75;;
7703;SDS011;3894;49.700;10.770;2022-08-21T11:06:30;10.45;;;9.02;;
7703;SDS011;3894;49.700;10.770;2022-08-21T11:09:01;10.43;;;8.88;;
7703;SDS011;3894;49.700;10.770;2022-08-21T11:11:35;10.55;;;9.18;;
7703;SDS011;3894;49.700;10.770;2022-08-21T11:14:08;10.05;;;8.23;;
7703;SDS011;3894;49.700;10.770;2022-08-21T11:19:24;7.63;;;5.75;;
7703;SDS011;3894;49.700;10.770;2022-08-21T11:21:59;8.57;;;7.40;;
7703;SDS011;3894;49.700;10.770;2022-08-21T11:24:56;6.43;;;5.18;;
7703;SDS011;3894;49.700;10.770;2022-08-21T11:29:55;7.82;;;5.35;;
7703;SDS011;3894;49.700;10.770;2022-08-21T11:38:15;7.05;;;5.38;;
7703;SDS011;3894;49.700;10.770;2022-08-21T11:41:00;7.50;;;6.07;;
7703;SDS011;3894;49.700;10.770;2022-08-21T11:46:08;6.40;;;4.95;;
7703;SDS011;3894;49.700;10.770;2022-08-21T11:48:59;6.90;;;5.35;;
7703;SDS011;3894;49.700;10.770;2022-08-21T11:51:45;6.47;;;4.88;;
7703;SDS011;3894;49.700;10.770;2022-08-21T11:56:51;6.47;;;5.10;;
7703;SDS011;3894;49.700;10.770;2022-08-21T11:59:34;7.45;;;5.15;;
7703;SDS011;3894;49.700;10.770;2022-08-21T12:02:14;6.00;;;4.22;;
7703;SDS011;3894;49.700;10.770;2022-08-21T12:04:53;6.15;;;4.88;;
7703;SDS011;3894;49.700;10.770;2022-08-21T12:07:37;6.25;;;4.50;;
7703;SDS011;3894;49.700;10.770;2022-08-21T12:10:07;6.15;;;4.55;;
7703;SDS011;3894;49.700;10.770;2022-08-21T12:18:46;6.75;;;4.75;;
7703;SDS011;3894;49.700;10.770;2022-08-21T12:21:04;5.63;;;4.32;;
7703;SDS011;3894;49.700;10.770;2022-08-21T12:24:33;5.00;;;4.17;;
7703;SDS011;3894;49.700;10.770;2022-08-21T12:26:55;5.40;;;4.40;;
7703;SDS011;3894;49.700;10.770;2022-08-21T12:29:27;6.28;;;4.45;;
7703;SDS011;3894;49.700;10.770;2022-08-21T12:31:59;6.20;;;4.60;;
7703;SDS011;3894;49.700;10.770;2022-08-21T12:40:18;5.57;;;4.40;;
7703;SDS011;3894;49.700;10.770;2022-08-21T12:42:49;5.05;;;4.18;;
7703;SDS011;3894;49.700;10.770;2022-08-21T12:46:00;5.63;;;4.25;;
7703;SDS011;3894;49.700;10.770;2022-08-21T12:50:49;7.45;;;4.20;;
7703;SDS011;3894;49.700;10.770;2022-08-21T12:55:57;5.70;;;4.20;;
7703;SDS011;3894;49.700;10.770;2022-08-21T12:58:28;5.07;;;4.03;;
7703;SDS011;3894;49.700;10.770;2022-08-21T13:03:28;5.53;;;3.90;;
7703;SDS011;3894;49.700;10.770;2022-08-21T13:05:54;4.70;;;3.90;;
7703;SDS011;3894;49.700;10.770;2022-08-21T13:08:21;4.82;;;3.97;;
7703;SDS011;3894;49.700;10.770;2022-08-21T13:10:49;6.57;;;4.07;;
7703;SDS011;3894;49.700;10.770;2022-08-21T13:13:26;5.30;;;3.83;;
7703;SDS011;3894;49.700;10.770;2022-08-21T13:15:57;5.35;;;3.55;;
7703;SDS011;3894;49.700;10.770;2022-08-21T13:18:27;4.70;;;3.78;;
7703;SDS011;3894;49.700;10.770;2022-08-21T13:21:11;4.80;;;3.70;;
7703;SDS011;3894;49.700;10.770;2022-08-21T13:23:39;5.97;;;4.18;;
7703;SDS011;3894;49.700;10.770;2022-08-21T13:26:15;5.10;;;3.60;;
7703;SDS011;3894;49.700;10.770;2022-08-21T13:28:43;4.90;;;3.58;;
7703;SDS011;3894;49.700;10.770;2022-08-21T13:31:12;4.47;;;3.60;;
7703;SDS011;3894;49.700;10.770;2022-08-21T13:33:41;4.03;;;3.30;;
7703;SDS011;3894;49.700;10.770;2022-08-21T13:38:35;4.50;;;3.50;;
7703;SDS011;3894;49.700;10.770;2022-08-21T13:41:05;6.28;;;3.72;;
7703;SDS011;3894;49.700;10.770;2022-08-21T13:43:32;5.88;;;3.53;;
7703;SDS011;3894;49.700;10.770;2022-08-21T13:46:01;4.80;;;3.10;;
7703;SDS011;3894;49.700;10.770;2022-08-21T13:48:32;4.65;;;3.15;;
7703;SDS011;3894;49.700;10.770;2022-08-21T13:50:59;4.32;;;3.22;;
7703;SDS011;3894;49.700;10.770;2022-08-21T13:53:30;3.95;;;3.08;;
7703;SDS011;3894;49.700;10.770;2022-08-21T13:55:58;3.75;;;2.88;;
7703;SDS011;3894;49.700;10.770;2022-08-21T13:58:32;5.05;;;3.33;;
7703;SDS011;3894;49.700;10.770;2022-08-21T14:01:23;5.07;;;3.20;;
7703;SDS011;3894;49.700;10.770;2022-08-21T14:03:50;4.47;;;3.13;;
7703;SDS011;3894;49.700;10.770;2022-08-21T14:06:20;4.35;;;3.00;;
7703;SDS011;3894;49.700;10.770;2022-08-21T14:08:50;6.78;;;3.30;;
7703;SDS011;3894;49.700;10.770;2022-08-21T14:11:18;4.00;;;2.75;;
7703;SDS011;3894;49.700;10.770;2022-08-21T14:13:45;4.78;;;3.33;;
7703;SDS011;3894;49.700;10.770;2022-08-21T14:16:22;4.10;;;3.00;;
7703;SDS011;3894;49.700;10.770;2022-08-21T14:19:07;3.47;;;3.00;;
7703;SDS011;3894;49.700;10.770;2022-08-21T14:21:40;4.57;;;3.00;;
7703;SDS011;3894;49.700;10.770;2022-08-21T14:24:13;4.65;;;3.15;;
7703;SDS011;3894;49.700;10.770;2022-08-21T14:26:44;4.55;;;2.85;;
7703;SDS011;3894;49.700;10.770;2022-08-21T14:29:13;4.20;;;2.47;;
7703;SDS011;3894;49.700;10.770;2022-08-21T14:31:41;4.20;;;2.63;;
7703;SDS011;3894;49.700;10.770;2022-08-21T14:34:08;4.97;;;2.50;;
7703;SDS011;3894;49.700;10.770;2022-08-21T14:36:36;4.28;;;2.33;;
7703;SDS011;3894;49.700;10.770;2022-08-21T14:39:02;4.25;;;2.50;;
7703;SDS011;3894;49.700;10.770;2022-08-21T14:41:28;3.75;;;2.63;;
7703;SDS011;3894;49.700;10.770;2022-08-21T14:43:54;4.05;;;3.03;;
7703;SDS011;3894;49.700;10.770;2022-08-21T14:46:23;6.18;;;2.88;;
7703;SDS011;3894;49.700;10.770;2022-08-21T14:48:50;4.03;;;2.80;;
7703;SDS011;3894;49.700;10.770;2022-08-21T14:51:16;4.60;;;2.83;;
7703;SDS011;3894;49.700;10.770;2022-08-21T14:53:41;3.80;;;2.60;;
7703;SDS011;3894;49.700;10.770;2022-08-21T14:56:07;4.40;;;3.03;;
7703;SDS011;3894;49.700;10.770;2022-08-21T14:58:37;3.60;;;2.50;;
7703;SDS011;3894;49.700;10.770;2022-08-21T15:01:06;3.42;;;2.40;;
7703;SDS011;3894;49.700;10.770;2022-08-21T15:03:33;4.45;;;2.30;;
7703;SDS011;3894;49.700;10.770;2022-08-21T15:05:59;3.17;;;2.13;;
7703;SDS011;3894;49.700;10.770;2022-08-21T15:08:25;3.83;;;2.47;;
7703;SDS011;3894;49.700;10.770;2022-08-21T15:10:51;4.18;;;2.40;;
7703;SDS011;3894;49.700;10.770;2022-08-21T15:13:17;3.47;;;2.38;;
7703;SDS011;3894;49.700;10.770;2022-08-21T15:15:44;3.72;;;2.10;;
7703;SDS011;3894;49.700;10.770;2022-08-21T15:18:12;4.22;;;2.60;;
7703;SDS011;3894;49.700;10.770;2022-08-21T15:20:38;3.45;;;2.45;;
7703;SDS011;3894;49.700;10.770;2022-08-21T15:23:07;2.78;;;2.30;;
7703;SDS011;3894;49.700;10.770;2022-08-21T15:25:33;5.85;;;2.83;;
7703;SDS011;3894;49.700;10.770;2022-08-21T15:28:00;3.50;;;2.42;;
7703;SDS011;3894;49.700;10.770;2022-08-21T15:30:27;3.55;;;2.70;;
7703;SDS011;3894;49.700;10.770;2022-08-21T15:32:55;5.03;;;3.05;;
7703;SDS011;3894;49.700;10.770;2022-08-21T15:35:20;4.05;;;2.35;;
7703;SDS011;3894;49.700;10.770;2022-08-21T15:37:46;3.75;;;2.35;;
7703;SDS011;3894;49.700;10.770;2022-08-21T15:40:11;3.58;;;2.38;;
7703;SDS011;3894;49.700;10.770;2022-08-21T15:42:39;4.45;;;2.33;;
7703;SDS011;3894;49.700;10.770;2022-08-21T15:45:06;4.35;;;2.10;;
7703;SDS011;3894;49.700;10.770;2022-08-21T15:47:34;3.90;;;2.47;;
7703;SDS011;3894;49.700;10.770;2022-08-21T15:50:01;3.67;;;2.42;;
7703;SDS011;3894;49.700;10.770;2022-08-21T15:52:29;3.67;;;2.30;;
7703;SDS011;3894;49.700;10.770;2022-08-21T15:54:54;4.38;;;2.33;;
7703;SDS011;3894;49.700;10.770;2022-08-21T15:57:21;3.90;;;2.50;;
7703;SDS011;3894;49.700;10.770;2022-08-21T15:59:49;4.10;;;2.47;;
7703;SDS011;3894;49.700;10.770;2022-08-21T16:02:21;5.43;;;2.60;;
7703;SDS011;3894;49.700;10.770;2022-08-21T16:04:54;3.33;;;2.30;;
7703;SDS011;3894;49.700;10.770;2022-08-21T16:07:20;4.22;;;2.20;;
7703;SDS011;3894;49.700;10.770;2022-08-21T16:09:45;3.53;;;2.58;;
7703;SDS011;3894;49.700;10.770;2022-08-21T16:12:13;4.70;;;2.47;;
7703;SDS011;3894;49.700;10.770;2022-08-21T16:15:08;3.42;;;2.35;;
7703;SDS011;3894;49.700;10.770;2022-08-21T16:17:36;4.70;;;2.38;;
7703;SDS011;3894;49.700;10.770;2022-08-21T16:20:04;4.75;;;2.42;;
7703;SDS011;3894;49.700;10.770;2022-08-21T16:22:33;5.40;;;2.95;;